YPPH/PER METAR and TAF weather

Enter ICAO airport designator
Station Type Date Time Source
YPPH METAR 2019/12/09 13:30 UTC NOAA

YPPH 091330Z 21011KT CAVOK 21/14 Q1020 FM1400 17012KT CAVOK


Station Type Date Time Source
YPPH Decoded METAR 2019/12/09 13:30 UTC NOAA

Belmont Perth Airport , Australia (YPPH) 31-56S 115-57E 29M
Dec 09, 2019 - 08:30 AM EST / 2019.12.09 1330 UTC
Wind: from the SSW (210 degrees) at 13 MPH (11 KT):0
Visibility: greater than 7 mile(s):0
Temperature: 69 F (21 C)
Dew Point: 57 F (14 C)
Relative Humidity: 64%
Pressure (altimeter): 30.12 in. Hg (1020 hPa)
ob: YPPH 091330Z 21011KT CAVOK 21/14 Q1020 FM1400 17012KT CAVOK
cycle: 13

Station Type Date Time Source
YPPH TAF 2019/12/09 12:12 UTC NOAA

TAF
AMD YPPH 091111Z 0912/1018 22014KT CAVOK
FM091400 17012KT CAVOK
FM091900 11014KT CAVOK
BECMG 1004/1006 22016KT CAVOK
FM101000 18012KT CAVOK
FM101500 12016KT CAVOK

Example: see airport list